sensor_id;sensor_type;location;lat;lon;timestamp;temperature;humidity
20672;DHT22;10495;50.922;4.760;2023-04-03T00:01:11;3.70;86.40
20672;DHT22;10495;50.922;4.760;2023-04-03T00:03:37;3.70;86.40
20672;DHT22;10495;50.922;4.760;2023-04-03T00:06:03;3.70;86.40
20672;DHT22;10495;50.922;4.760;2023-04-03T00:08:31;3.70;86.30
20672;DHT22;10495;50.922;4.760;2023-04-03T00:10:58;3.70;86.30
20672;DHT22;10495;50.922;4.760;2023-04-03T00:13:24;3.60;86.20
20672;DHT22;10495;50.922;4.760;2023-04-03T00:15:51;3.60;86.20
20672;DHT22;10495;50.922;4.760;2023-04-03T00:18:16;3.60;86.40
20672;DHT22;10495;50.922;4.760;2023-04-03T00:20:42;3.60;86.50
20672;DHT22;10495;50.922;4.760;2023-04-03T00:23:08;3.60;86.50
20672;DHT22;10495;50.922;4.760;2023-04-03T00:25:34;3.60;86.40
20672;DHT22;10495;50.922;4.760;2023-04-03T00:28:00;3.60;87.00
20672;DHT22;10495;50.922;4.760;2023-04-03T00:30:26;3.50;86.60
20672;DHT22;10495;50.922;4.760;2023-04-03T00:32:52;3.50;86.60
20672;DHT22;10495;50.922;4.760;2023-04-03T00:35:19;3.40;86.70
20672;DHT22;10495;50.922;4.760;2023-04-03T00:37:46;3.40;86.70
20672;DHT22;10495;50.922;4.760;2023-04-03T00:40:13;3.50;86.80
20672;DHT22;10495;50.922;4.760;2023-04-03T00:42:41;3.40;86.80
20672;DHT22;10495;50.922;4.760;2023-04-03T00:45:23;3.30;86.90
20672;DHT22;10495;50.922;4.760;2023-04-03T00:47:50;3.40;87.10
20672;DHT22;10495;50.922;4.760;2023-04-03T00:50:16;3.40;86.90
20672;DHT22;10495;50.922;4.760;2023-04-03T00:52:42;3.30;86.70
20672;DHT22;10495;50.922;4.760;2023-04-03T00:55:12;3.30;86.90
20672;DHT22;10495;50.922;4.760;2023-04-03T00:57:40;3.30;86.80
20672;DHT22;10495;50.922;4.760;2023-04-03T01:00:09;3.30;86.90
20672;DHT22;10495;50.922;4.760;2023-04-03T01:02:36;3.30;86.90
20672;DHT22;10495;50.922;4.760;2023-04-03T01:05:02;3.20;87.10
20672;DHT22;10495;50.922;4.760;2023-04-03T01:07:30;3.20;87.00
20672;DHT22;10495;50.922;4.760;2023-04-03T01:09:58;3.20;87.00
20672;DHT22;10495;50.922;4.760;2023-04-03T01:12:29;3.20;86.90
20672;DHT22;10495;50.922;4.760;2023-04-03T01:15:00;3.10;86.80
20672;DHT22;10495;50.922;4.760;2023-04-03T01:17:40;3.20;87.00
20672;DHT22;10495;50.922;4.760;2023-04-03T01:25:27;3.20;87.20
20672;DHT22;10495;50.922;4.760;2023-04-03T01:27:53;3.20;87.10
20672;DHT22;10495;50.922;4.760;2023-04-03T01:30:20;3.30;87.30
20672;DHT22;10495;50.922;4.760;2023-04-03T01:32:46;3.40;87.00
20672;DHT22;10495;50.922;4.760;2023-04-03T01:35:12;3.50;86.90
20672;DHT22;10495;50.922;4.760;2023-04-03T01:37:38;3.50;87.00
20672;DHT22;10495;50.922;4.760;2023-04-03T01:40:04;3.70;86.50
20672;DHT22;10495;50.922;4.760;2023-04-03T01:42:31;3.60;86.60
20672;DHT22;10495;50.922;4.760;2023-04-03T01:44:56;3.70;86.20
20672;DHT22;10495;50.922;4.760;2023-04-03T01:47:22;4.00;85.40
20672;DHT22;10495;50.922;4.760;2023-04-03T01:49:49;4.10;84.70
20672;DHT22;10495;50.922;4.760;2023-04-03T01:52:14;4.00;84.80
20672;DHT22;10495;50.922;4.760;2023-04-03T01:54:40;3.90;85.30
20672;DHT22;10495;50.922;4.760;2023-04-03T01:57:05;3.80;85.60
20672;DHT22;10495;50.922;4.760;2023-04-03T01:59:31;3.80;85.90
20672;DHT22;10495;50.922;4.760;2023-04-03T02:01:57;3.80;86.30
20672;DHT22;10495;50.922;4.760;2023-04-03T02:04:22;3.70;86.20
20672;DHT22;10495;50.922;4.760;2023-04-03T02:06:48;3.60;86.40
20672;DHT22;10495;50.922;4.760;2023-04-03T02:09:14;3.50;86.50
20672;DHT22;10495;50.922;4.760;2023-04-03T02:11:40;3.50;86.90
20672;DHT22;10495;50.922;4.760;2023-04-03T02:14:05;3.40;86.50
20672;DHT22;10495;50.922;4.760;2023-04-03T02:16:31;3.40;86.60
20672;DHT22;10495;50.922;4.760;2023-04-03T02:18:57;3.40;86.50
20672;DHT22;10495;50.922;4.760;2023-04-03T02:21:22;3.40;86.30
20672;DHT22;10495;50.922;4.760;2023-04-03T02:23:48;3.30;86.40
20672;DHT22;10495;50.922;4.760;2023-04-03T02:26:16;3.20;86.40
20672;DHT22;10495;50.922;4.760;2023-04-03T02:28:42;3.20;86.60
20672;DHT22;10495;50.922;4.760;2023-04-03T02:31:09;3.20;86.50
20672;DHT22;10495;50.922;4.760;2023-04-03T02:33:36;3.10;86.50
20672;DHT22;10495;50.922;4.760;2023-04-03T02:36:06;3.10;86.50
20672;DHT22;10495;50.922;4.760;2023-04-03T02:38:32;3.10;86.80
20672;DHT22;10495;50.922;4.760;2023-04-03T02:41:06;3.10;86.60
20672;DHT22;10495;50.922;4.760;2023-04-03T02:43:32;3.10;86.60
20672;DHT22;10495;50.922;4.760;2023-04-03T02:45:58;3.00;86.50
20672;DHT22;10495;50.922;4.760;2023-04-03T02:48:24;3.00;86.60
20672;DHT22;10495;50.922;4.760;2023-04-03T02:50:50;3.00;86.60
20672;DHT22;10495;50.922;4.760;2023-04-03T02:53:16;3.00;86.60
20672;DHT22;10495;50.922;4.760;2023-04-03T02:55:41;2.90;86.60
20672;DHT22;10495;50.922;4.760;2023-04-03T02:58:07;2.90;86.60
20672;DHT22;10495;50.922;4.760;2023-04-03T03:00:33;2.80;86.60
20672;DHT22;10495;50.922;4.760;2023-04-03T03:02:59;2.80;86.70
20672;DHT22;10495;50.922;4.760;2023-04-03T03:05:25;2.90;86.70
20672;DHT22;10495;50.922;4.760;2023-04-03T03:07:51;2.80;86.60
20672;DHT22;10495;50.922;4.760;2023-04-03T03:10:17;2.70;86.60
20672;DHT22;10495;50.922;4.760;2023-04-03T03:12:43;2.60;86.80
20672;DHT22;10495;50.922;4.760;2023-04-03T03:15:09;2.60;86.80
20672;DHT22;10495;50.922;4.760;2023-04-03T03:17:34;2.60;87.20
20672;DHT22;10495;50.922;4.760;2023-04-03T03:20:02;2.60;86.80
20672;DHT22;10495;50.922;4.760;2023-04-03T03:22:28;2.50;86.80
20672;DHT22;10495;50.922;4.760;2023-04-03T03:24:54;2.50;86.70
20672;DHT22;10495;50.922;4.760;2023-04-03T03:27:20;2.50;86.80
20672;DHT22;10495;50.922;4.760;2023-04-03T03:29:46;2.50;86.80
20672;DHT22;10495;50.922;4.760;2023-04-03T03:32:11;2.40;86.80
20672;DHT22;10495;50.922;4.760;2023-04-03T03:34:37;2.40;87.00
20672;DHT22;10495;50.922;4.760;2023-04-03T03:37:03;2.40;87.10
20672;DHT22;10495;50.922;4.760;2023-04-03T03:39:29;2.40;87.10
20672;DHT22;10495;50.922;4.760;2023-04-03T03:41:54;2.40;87.30
20672;DHT22;10495;50.922;4.760;2023-04-03T03:44:20;2.30;87.70
20672;DHT22;10495;50.922;4.760;2023-04-03T03:46:46;2.30;87.20
20672;DHT22;10495;50.922;4.760;2023-04-03T03:49:12;2.30;87.20
20672;DHT22;10495;50.922;4.760;2023-04-03T03:51:38;2.30;87.30
20672;DHT22;10495;50.922;4.760;2023-04-03T03:54:04;2.30;87.30
20672;DHT22;10495;50.922;4.760;2023-04-03T03:56:30;2.30;87.30
20672;DHT22;10495;50.922;4.760;2023-04-03T03:58:56;2.30;87.80
20672;DHT22;10495;50.922;4.760;2023-04-03T04:01:23;2.30;87.20
20672;DHT22;10495;50.922;4.760;2023-04-03T04:03:49;2.30;87.40
20672;DHT22;10495;50.922;4.760;2023-04-03T04:06:16;2.30;87.40
20672;DHT22;10495;50.922;4.760;2023-04-03T04:08:42;2.20;87.30
20672;DHT22;10495;50.922;4.760;2023-04-03T04:11:09;2.20;87.30
20672;DHT22;10495;50.922;4.760;2023-04-03T04:13:34;2.20;87.50
20672;DHT22;10495;50.922;4.760;2023-04-03T04:16:00;2.20;87.40
20672;DHT22;10495;50.922;4.760;2023-04-03T04:18:26;2.20;87.50
20672;DHT22;10495;50.922;4.760;2023-04-03T04:20:51;2.10;87.50
20672;DHT22;10495;50.922;4.760;2023-04-03T04:23:18;2.10;87.50
20672;DHT22;10495;50.922;4.760;2023-04-03T04:25:47;2.10;87.50
20672;DHT22;10495;50.922;4.760;2023-04-03T04:28:13;2.10;87.50
20672;DHT22;10495;50.922;4.760;2023-04-03T04:30:39;2.10;87.50
20672;DHT22;10495;50.922;4.760;2023-04-03T04:33:05;2.10;87.50
20672;DHT22;10495;50.922;4.760;2023-04-03T04:35:30;2.10;87.60
20672;DHT22;10495;50.922;4.760;2023-04-03T04:37:56;2.10;87.60
20672;DHT22;10495;50.922;4.760;2023-04-03T04:40:22;2.10;87.50
20672;DHT22;10495;50.922;4.760;2023-04-03T04:42:47;2.00;87.80
20672;DHT22;10495;50.922;4.760;2023-04-03T04:45:13;2.00;87.90
20672;DHT22;10495;50.922;4.760;2023-04-03T04:47:40;2.00;87.50
20672;DHT22;10495;50.922;4.760;2023-04-03T04:50:06;2.00;87.40
20672;DHT22;10495;50.922;4.760;2023-04-03T04:52:32;2.00;87.70
20672;DHT22;10495;50.922;4.760;2023-04-03T04:54:58;2.00;87.60
20672;DHT22;10495;50.922;4.760;2023-04-03T04:57:23;2.00;87.50
20672;DHT22;10495;50.922;4.760;2023-04-03T04:59:49;2.00;87.60
20672;DHT22;10495;50.922;4.760;2023-04-03T05:02:15;2.00;87.70
20672;DHT22;10495;50.922;4.760;2023-04-03T05:04:40;2.10;87.90
20672;DHT22;10495;50.922;4.760;2023-04-03T05:07:06;2.00;87.70
20672;DHT22;10495;50.922;4.760;2023-04-03T05:09:32;2.00;87.70
20672;DHT22;10495;50.922;4.760;2023-04-03T05:11:57;2.00;88.10
20672;DHT22;10495;50.922;4.760;2023-04-03T05:14:23;2.00;87.90
20672;DHT22;10495;50.922;4.760;2023-04-03T05:16:49;2.00;87.90
20672;DHT22;10495;50.922;4.760;2023-04-03T05:19:18;1.90;87.80
20672;DHT22;10495;50.922;4.760;2023-04-03T05:21:43;1.90;87.90
20672;DHT22;10495;50.922;4.760;2023-04-03T05:24:09;1.90;87.90
20672;DHT22;10495;50.922;4.760;2023-04-03T05:26:35;1.90;88.00
20672;DHT22;10495;50.922;4.760;2023-04-03T05:29:00;1.90;88.00
20672;DHT22;10495;50.922;4.760;2023-04-03T05:31:26;1.90;88.00
20672;DHT22;10495;50.922;4.760;2023-04-03T05:33:55;1.90;88.10
20672;DHT22;10495;50.922;4.760;2023-04-03T05:36:20;1.90;88.50
20672;DHT22;10495;50.922;4.760;2023-04-03T05:38:46;1.90;88.40
20672;DHT22;10495;50.922;4.760;2023-04-03T05:41:13;1.90;88.50
20672;DHT22;10495;50.922;4.760;2023-04-03T05:43:38;1.90;88.50
20672;DHT22;10495;50.922;4.760;2023-04-03T05:46:16;1.90;88.50
20672;DHT22;10495;50.922;4.760;2023-04-03T05:48:42;2.00;88.90
20672;DHT22;10495;50.922;4.760;2023-04-03T05:51:14;2.10;89.10
20672;DHT22;10495;50.922;4.760;2023-04-03T05:53:41;2.20;89.10
20672;DHT22;10495;50.922;4.760;2023-04-03T05:56:08;2.30;89.20
20672;DHT22;10495;50.922;4.760;2023-04-03T05:58:34;2.40;89.30
20672;DHT22;10495;50.922;4.760;2023-04-03T06:00:59;2.50;89.90
20672;DHT22;10495;50.922;4.760;2023-04-03T06:03:25;2.70;89.60
20672;DHT22;10495;50.922;4.760;2023-04-03T06:05:51;2.90;89.80
20672;DHT22;10495;50.922;4.760;2023-04-03T06:08:17;3.10;89.60
20672;DHT22;10495;50.922;4.760;2023-04-03T06:10:42;3.20;89.30
20672;DHT22;10495;50.922;4.760;2023-04-03T06:13:08;3.30;89.10
20672;DHT22;10495;50.922;4.760;2023-04-03T06:15:33;3.50;89.20
20672;DHT22;10495;50.922;4.760;2023-04-03T06:17:59;3.80;88.60
20672;DHT22;10495;50.922;4.760;2023-04-03T06:20:25;4.10;88.00
20672;DHT22;10495;50.922;4.760;2023-04-03T06:22:51;4.30;87.90
20672;DHT22;10495;50.922;4.760;2023-04-03T06:25:16;4.70;86.40
20672;DHT22;10495;50.922;4.760;2023-04-03T06:27:44;5.00;85.60
20672;DHT22;10495;50.922;4.760;2023-04-03T06:30:10;5.30;85.60
20672;DHT22;10495;50.922;4.760;2023-04-03T06:32:36;5.40;85.80
20672;DHT22;10495;50.922;4.760;2023-04-03T06:35:03;5.80;83.80
20672;DHT22;10495;50.922;4.760;2023-04-03T06:37:29;6.10;83.10
20672;DHT22;10495;50.922;4.760;2023-04-03T06:39:56;6.30;82.60
20672;DHT22;10495;50.922;4.760;2023-04-03T06:42:21;6.60;81.60
20672;DHT22;10495;50.922;4.760;2023-04-03T06:44:47;6.60;80.30
20672;DHT22;10495;50.922;4.760;2023-04-03T06:47:14;7.00;80.70
20672;DHT22;10495;50.922;4.760;2023-04-03T06:49:40;7.20;78.00
20672;DHT22;10495;50.922;4.760;2023-04-03T06:52:07;7.80;74.90
20672;DHT22;10495;50.922;4.760;2023-04-03T06:54:32;7.80;77.20
20672;DHT22;10495;50.922;4.760;2023-04-03T06:56:58;8.00;76.30
20672;DHT22;10495;50.922;4.760;2023-04-03T06:59:24;8.20;73.30
20672;DHT22;10495;50.922;4.760;2023-04-03T07:01:50;8.40;74.20
20672;DHT22;10495;50.922;4.760;2023-04-03T07:04:16;8.60;74.30
20672;DHT22;10495;50.922;4.760;2023-04-03T07:06:42;8.70;72.80
20672;DHT22;10495;50.922;4.760;2023-04-03T07:09:09;9.00;72.50
20672;DHT22;10495;50.922;4.760;2023-04-03T07:11:35;9.40;70.90
20672;DHT22;10495;50.922;4.760;2023-04-03T07:14:02;9.40;70.00
20672;DHT22;10495;50.922;4.760;2023-04-03T07:16:27;9.80;67.60
20672;DHT22;10495;50.922;4.760;2023-04-03T07:18:56;9.80;67.90
20672;DHT22;10495;50.922;4.760;2023-04-03T07:21:23;10.00;68.90
20672;DHT22;10495;50.922;4.760;2023-04-03T07:23:49;10.40;68.70
20672;DHT22;10495;50.922;4.760;2023-04-03T07:26:14;10.70;67.50
20672;DHT22;10495;50.922;4.760;2023-04-03T07:28:40;10.90;65.60
20672;DHT22;10495;50.922;4.760;2023-04-03T07:31:10;11.20;64.50
20672;DHT22;10495;50.922;4.760;2023-04-03T07:33:37;11.40;62.70
20672;DHT22;10495;50.922;4.760;2023-04-03T07:36:03;11.50;63.50
20672;DHT22;10495;50.922;4.760;2023-04-03T07:38:29;11.50;61.80
20672;DHT22;10495;50.922;4.760;2023-04-03T07:40:55;11.50;61.20
20672;DHT22;10495;50.922;4.760;2023-04-03T07:43:21;11.50;61.10
20672;DHT22;10495;50.922;4.760;2023-04-03T07:45:48;11.60;60.20
20672;DHT22;10495;50.922;4.760;2023-04-03T07:48:17;11.90;59.50
20672;DHT22;10495;50.922;4.760;2023-04-03T07:50:43;11.70;62.00
20672;DHT22;10495;50.922;4.760;2023-04-03T07:53:09;12.20;59.50
20672;DHT22;10495;50.922;4.760;2023-04-03T07:55:35;12.40;58.50
20672;DHT22;10495;50.922;4.760;2023-04-03T07:58:11;12.20;59.00
20672;DHT22;10495;50.922;4.760;2023-04-03T08:00:37;12.40;58.90
20672;DHT22;10495;50.922;4.760;2023-04-03T08:03:03;12.10;59.00
20672;DHT22;10495;50.922;4.760;2023-04-03T08:05:29;12.30;58.80
20672;DHT22;10495;50.922;4.760;2023-04-03T08:07:55;12.70;58.30
20672;DHT22;10495;50.922;4.760;2023-04-03T08:10:20;12.90;58.40
20672;DHT22;10495;50.922;4.760;2023-04-03T08:12:47;13.10;57.80
20672;DHT22;10495;50.922;4.760;2023-04-03T08:15:13;12.90;57.30
20672;DHT22;10495;50.922;4.760;2023-04-03T08:17:38;12.60;57.90
20672;DHT22;10495;50.922;4.760;2023-04-03T08:20:05;12.80;57.20
20672;DHT22;10495;50.922;4.760;2023-04-03T08:22:32;12.90;57.00
20672;DHT22;10495;50.922;4.760;2023-04-03T08:24:58;12.60;57.20
20672;DHT22;10495;50.922;4.760;2023-04-03T08:27:24;12.80;56.70
20672;DHT22;10495;50.922;4.760;2023-04-03T08:29:50;12.80;56.30
20672;DHT22;10495;50.922;4.760;2023-04-03T08:32:16;12.60;57.10
20672;DHT22;10495;50.922;4.760;2023-04-03T08:34:43;12.50;57.60
20672;DHT22;10495;50.922;4.760;2023-04-03T08:37:08;12.50;57.00
20672;DHT22;10495;50.922;4.760;2023-04-03T08:39:35;12.90;57.40
20672;DHT22;10495;50.922;4.760;2023-04-03T08:42:05;13.50;55.70
20672;DHT22;10495;50.922;4.760;2023-04-03T08:44:39;13.60;56.70
20672;DHT22;10495;50.922;4.760;2023-04-03T08:50:05;13.30;55.70
20672;DHT22;10495;50.922;4.760;2023-04-03T08:52:36;13.20;56.80
20672;DHT22;10495;50.922;4.760;2023-04-03T08:55:27;13.10;55.70
20672;DHT22;10495;50.922;4.760;2023-04-03T08:57:58;13.10;55.40
20672;DHT22;10495;50.922;4.760;2023-04-03T09:00:28;12.70;55.70
20672;DHT22;10495;50.922;4.760;2023-04-03T09:02:56;12.50;55.40
20672;DHT22;10495;50.922;4.760;2023-04-03T09:08:18;12.80;54.70
20672;DHT22;10495;50.922;4.760;2023-04-03T09:10:46;12.80;54.10
20672;DHT22;10495;50.922;4.760;2023-04-03T09:14:23;12.80;54.50
20672;DHT22;10495;50.922;4.760;2023-04-03T09:16:31;12.80;56.00
20672;DHT22;10495;50.922;4.760;2023-04-03T09:19:21;13.20;54.10
20672;DHT22;10495;50.922;4.760;2023-04-03T09:21:50;13.50;54.20
20672;DHT22;10495;50.922;4.760;2023-04-03T09:24:16;13.70;55.30
20672;DHT22;10495;50.922;4.760;2023-04-03T09:26:52;13.40;54.00
20672;DHT22;10495;50.922;4.760;2023-04-03T09:29:22;13.70;54.80
20672;DHT22;10495;50.922;4.760;2023-04-03T09:31:49;14.00;53.90
20672;DHT22;10495;50.922;4.760;2023-04-03T09:34:31;14.00;53.00
20672;DHT22;10495;50.922;4.760;2023-04-03T09:36:59;14.00;53.60
20672;DHT22;10495;50.922;4.760;2023-04-03T09:39:31;13.40;54.30
20672;DHT22;10495;50.922;4.760;2023-04-03T09:42:21;13.60;54.20
20672;DHT22;10495;50.922;4.760;2023-04-03T09:44:58;13.80;54.50
20672;DHT22;10495;50.922;4.760;2023-04-03T09:47:31;13.20;54.30
20672;DHT22;10495;50.922;4.760;2023-04-03T09:50:17;13.50;53.30
20672;DHT22;10495;50.922;4.760;2023-04-03T09:52:49;13.70;53.30
20672;DHT22;10495;50.922;4.760;2023-04-03T09:55:27;13.20;52.90
20672;DHT22;10495;50.922;4.760;2023-04-03T09:57:59;13.40;53.10
20672;DHT22;10495;50.922;4.760;2023-04-03T10:00:31;13.00;53.80
20672;DHT22;10495;50.922;4.760;2023-04-03T10:02:58;13.40;53.80
20672;DHT22;10495;50.922;4.760;2023-04-03T10:05:36;13.20;53.50
20672;DHT22;10495;50.922;4.760;2023-04-03T10:10:42;14.10;52.60
20672;DHT22;10495;50.922;4.760;2023-04-03T10:13:13;14.40;52.00
20672;DHT22;10495;50.922;4.760;2023-04-03T10:15:44;13.30;51.50
20672;DHT22;10495;50.922;4.760;2023-04-03T10:21:42;12.10;52.40
20672;DHT22;10495;50.922;4.760;2023-04-03T10:27:18;12.00;51.90
20672;DHT22;10495;50.922;4.760;2023-04-03T10:32:46;11.60;52.00
20672;DHT22;10495;50.922;4.760;2023-04-03T10:35:56;11.00;52.20
20672;DHT22;10495;50.922;4.760;2023-04-03T10:47:00;11.00;51.80
20672;DHT22;10495;50.922;4.760;2023-04-03T10:50:10;10.90;51.70
20672;DHT22;10495;50.922;4.760;2023-04-03T10:53:01;10.90;52.30
20672;DHT22;10495;50.922;4.760;2023-04-03T10:55:58;10.70;53.60
20672;DHT22;10495;50.922;4.760;2023-04-03T10:58:32;11.10;52.10
20672;DHT22;10495;50.922;4.760;2023-04-03T11:01:06;11.10;53.10
20672;DHT22;10495;50.922;4.760;2023-04-03T11:03:40;10.80;52.80
20672;DHT22;10495;50.922;4.760;2023-04-03T11:06:14;10.80;51.90
20672;DHT22;10495;50.922;4.760;2023-04-03T11:09:01;10.40;51.70
20672;DHT22;10495;50.922;4.760;2023-04-03T11:11:34;10.30;52.30
20672;DHT22;10495;50.922;4.760;2023-04-03T11:14:31;10.30;53.20
20672;DHT22;10495;50.922;4.760;2023-04-03T11:22:48;10.40;53.50
20672;DHT22;10495;50.922;4.760;2023-04-03T11:25:23;10.10;49.50
20672;DHT22;10495;50.922;4.760;2023-04-03T11:27:56;10.00;50.00
20672;DHT22;10495;50.922;4.760;2023-04-03T11:33:28;10.00;49.60
20672;DHT22;10495;50.922;4.760;2023-04-03T11:36:02;10.00;50.40
20672;DHT22;10495;50.922;4.760;2023-04-03T11:38:36;10.40;49.40
20672;DHT22;10495;50.922;4.760;2023-04-03T11:41:06;10.50;48.70
20672;DHT22;10495;50.922;4.760;2023-04-03T11:43:33;10.80;48.70
20672;DHT22;10495;50.922;4.760;2023-04-03T11:46:01;10.80;48.80
20672;DHT22;10495;50.922;4.760;2023-04-03T11:50:55;10.70;48.70
20672;DHT22;10495;50.922;4.760;2023-04-03T11:53:39;10.40;49.20
20672;DHT22;10495;50.922;4.760;2023-04-03T12:01:53;11.00;47.90
20672;DHT22;10495;50.922;4.760;2023-04-03T12:04:21;11.10;46.60
20672;DHT22;10495;50.922;4.760;2023-04-03T12:07:11;10.90;46.90
20672;DHT22;10495;50.922;4.760;2023-04-03T12:12:28;10.60;46.70
20672;DHT22;10495;50.922;4.760;2023-04-03T12:14:54;10.90;45.50
20672;DHT22;10495;50.922;4.760;2023-04-03T12:17:25;10.90;46.10
20672;DHT22;10495;50.922;4.760;2023-04-03T12:19:51;10.90;45.50
20672;DHT22;10495;50.922;4.760;2023-04-03T12:22:19;11.10;46.20
20672;DHT22;10495;50.922;4.760;2023-04-03T12:24:51;10.90;46.20
20672;DHT22;10495;50.922;4.760;2023-04-03T12:27:38;10.40;46.70
20672;DHT22;10495;50.922;4.760;2023-04-03T12:35:57;10.50;46.40
20672;DHT22;10495;50.922;4.760;2023-04-03T12:46:22;10.40;46.50
20672;DHT22;10495;50.922;4.760;2023-04-03T12:51:40;10.80;45.30
20672;DHT22;10495;50.922;4.760;2023-04-03T12:57:18;10.70;46.40
20672;DHT22;10495;50.922;4.760;2023-04-03T12:59:44;10.40;46.40
20672;DHT22;10495;50.922;4.760;2023-04-03T13:02:27;10.50;46.70
20672;DHT22;10495;50.922;4.760;2023-04-03T13:04:56;10.80;46.70
20672;DHT22;10495;50.922;4.760;2023-04-03T13:07:31;11.00;46.30
20672;DHT22;10495;50.922;4.760;2023-04-03T13:10:02;11.00;46.80
20672;DHT22;10495;50.922;4.760;2023-04-03T13:12:28;11.20;46.50
20672;DHT22;10495;50.922;4.760;2023-04-03T13:14:57;11.10;47.10
20672;DHT22;10495;50.922;4.760;2023-04-03T13:17:25;11.00;47.00
20672;DHT22;10495;50.922;4.760;2023-04-03T13:19:51;10.60;47.70
20672;DHT22;10495;50.922;4.760;2023-04-03T13:22:27;10.60;46.70
20672;DHT22;10495;50.922;4.760;2023-04-03T13:24:55;10.70;47.10
20672;DHT22;10495;50.922;4.760;2023-04-03T13:27:22;10.70;46.90
20672;DHT22;10495;50.922;4.760;2023-04-03T13:29:53;10.60;47.50
20672;DHT22;10495;50.922;4.760;2023-04-03T13:32:25;10.80;48.30
20672;DHT22;10495;50.922;4.760;2023-04-03T13:34:51;11.10;46.70
20672;DHT22;10495;50.922;4.760;2023-04-03T13:37:25;11.40;46.20
20672;DHT22;10495;50.922;4.760;2023-04-03T13:40:17;11.20;46.20
20672;DHT22;10495;50.922;4.760;2023-04-03T13:42:42;11.30;46.10
20672;DHT22;10495;50.922;4.760;2023-04-03T13:45:22;11.60;45.50
20672;DHT22;10495;50.922;4.760;2023-04-03T13:47:50;11.60;46.70
20672;DHT22;10495;50.922;4.760;2023-04-03T13:50:22;11.30;47.40
20672;DHT22;10495;50.922;4.760;2023-04-03T13:52:55;11.10;47.30
20672;DHT22;10495;50.922;4.760;2023-04-03T13:55:34;11.40;47.20
20672;DHT22;10495;50.922;4.760;2023-04-03T14:05:50;11.70;45.10
20672;DHT22;10495;50.922;4.760;2023-04-03T14:08:17;12.00;44.60
20672;DHT22;10495;50.922;4.760;2023-04-03T14:10:43;12.00;45.40
20672;DHT22;10495;50.922;4.760;2023-04-03T14:13:13;11.80;46.50
20672;DHT22;10495;50.922;4.760;2023-04-03T14:15:39;11.80;46.10
20672;DHT22;10495;50.922;4.760;2023-04-03T14:18:05;11.70;45.00
20672;DHT22;10495;50.922;4.760;2023-04-03T14:20:31;11.80;45.10
20672;DHT22;10495;50.922;4.760;2023-04-03T14:22:56;11.70;45.40
20672;DHT22;10495;50.922;4.760;2023-04-03T14:25:22;11.50;44.70
20672;DHT22;10495;50.922;4.760;2023-04-03T14:27:52;11.40;45.20
20672;DHT22;10495;50.922;4.760;2023-04-03T14:30:30;11.10;45.40
20672;DHT22;10495;50.922;4.760;2023-04-03T14:32:56;11.00;45.60
20672;DHT22;10495;50.922;4.760;2023-04-03T14:35:23;11.30;45.90
20672;DHT22;10495;50.922;4.760;2023-04-03T14:37:51;11.70;45.70
20672;DHT22;10495;50.922;4.760;2023-04-03T14:40:23;11.50;45.30
20672;DHT22;10495;50.922;4.760;2023-04-03T14:42:50;11.40;44.80
20672;DHT22;10495;50.922;4.760;2023-04-03T14:45:16;11.50;45.70
20672;DHT22;10495;50.922;4.760;2023-04-03T14:48:03;11.60;45.40
20672;DHT22;10495;50.922;4.760;2023-04-03T14:50:28;11.50;44.70
20672;DHT22;10495;50.922;4.760;2023-04-03T14:52:56;11.10;46.10
20672;DHT22;10495;50.922;4.760;2023-04-03T14:55:25;10.90;45.40
20672;DHT22;10495;50.922;4.760;2023-04-03T14:57:51;11.10;45.70
20672;DHT22;10495;50.922;4.760;2023-04-03T15:00:20;11.20;46.50
20672;DHT22;10495;50.922;4.760;2023-04-03T15:02:46;11.70;45.80
20672;DHT22;10495;50.922;4.760;2023-04-03T15:05:13;11.70;46.40
20672;DHT22;10495;50.922;4.760;2023-04-03T15:07:52;11.30;46.50
20672;DHT22;10495;50.922;4.760;2023-04-03T15:10:25;11.30;46.70
20672;DHT22;10495;50.922;4.760;2023-04-03T15:12:51;11.30;46.40
20672;DHT22;10495;50.922;4.760;2023-04-03T15:15:18;11.30;46.30
20672;DHT22;10495;50.922;4.760;2023-04-03T15:17:46;11.20;46.70
20672;DHT22;10495;50.922;4.760;2023-04-03T15:20:18;11.30;47.00
20672;DHT22;10495;50.922;4.760;2023-04-03T15:22:46;11.70;46.50
20672;DHT22;10495;50.922;4.760;2023-04-03T15:25:12;11.30;46.70
20672;DHT22;10495;50.922;4.760;2023-04-03T15:27:38;11.30;46.70
20672;DHT22;10495;50.922;4.760;2023-04-03T15:30:06;11.50;46.60
20672;DHT22;10495;50.922;4.760;2023-04-03T15:32:33;11.30;46.60
20672;DHT22;10495;50.922;4.760;2023-04-03T15:35:00;11.20;46.90
20672;DHT22;10495;50.922;4.760;2023-04-03T15:37:25;11.00;46.80
20672;DHT22;10495;50.922;4.760;2023-04-03T15:39:51;10.90;47.20
20672;DHT22;10495;50.922;4.760;2023-04-03T15:42:16;11.10;46.80
20672;DHT22;10495;50.922;4.760;2023-04-03T15:44:42;11.20;47.70
20672;DHT22;10495;50.922;4.760;2023-04-03T15:47:08;11.20;47.60
20672;DHT22;10495;50.922;4.760;2023-04-03T15:49:34;11.50;47.70
20672;DHT22;10495;50.922;4.760;2023-04-03T15:52:00;11.70;47.20
20672;DHT22;10495;50.922;4.760;2023-04-03T15:54:26;11.80;46.80
20672;DHT22;10495;50.922;4.760;2023-04-03T15:56:53;11.80;47.10
20672;DHT22;10495;50.922;4.760;2023-04-03T15:59:18;11.80;46.80
20672;DHT22;10495;50.922;4.760;2023-04-03T16:01:45;11.50;47.40
20672;DHT22;10495;50.922;4.760;2023-04-03T16:04:11;11.30;47.40
20672;DHT22;10495;50.922;4.760;2023-04-03T16:06:38;11.40;47.00
20672;DHT22;10495;50.922;4.760;2023-04-03T16:09:04;11.30;47.20
20672;DHT22;10495;50.922;4.760;2023-04-03T16:11:30;11.30;47.10
20672;DHT22;10495;50.922;4.760;2023-04-03T16:13:56;11.40;47.50
20672;DHT22;10495;50.922;4.760;2023-04-03T16:16:23;11.40;46.80
20672;DHT22;10495;50.922;4.760;2023-04-03T16:18:49;11.20;47.30
20672;DHT22;10495;50.922;4.760;2023-04-03T16:21:16;11.30;47.20
20672;DHT22;10495;50.922;4.760;2023-04-03T16:23:42;11.30;47.00
20672;DHT22;10495;50.922;4.760;2023-04-03T16:26:08;11.30;47.40
20672;DHT22;10495;50.922;4.760;2023-04-03T16:28:34;11.00;47.80
20672;DHT22;10495;50.922;4.760;2023-04-03T16:31:01;11.10;47.40
20672;DHT22;10495;50.922;4.760;2023-04-03T16:33:27;11.10;47.70
20672;DHT22;10495;50.922;4.760;2023-04-03T16:35:53;11.40;47.20
20672;DHT22;10495;50.922;4.760;2023-04-03T16:38:19;11.20;48.00
20672;DHT22;10495;50.922;4.760;2023-04-03T16:40:47;10.90;47.50
20672;DHT22;10495;50.922;4.760;2023-04-03T16:43:14;10.80;47.40
20672;DHT22;10495;50.922;4.760;2023-04-03T16:45:40;10.90;47.40
20672;DHT22;10495;50.922;4.760;2023-04-03T16:48:06;11.00;47.80
20672;DHT22;10495;50.922;4.760;2023-04-03T16:50:31;11.10;47.90
20672;DHT22;10495;50.922;4.760;2023-04-03T16:52:57;11.10;47.30
20672;DHT22;10495;50.922;4.760;2023-04-03T16:55:23;11.20;47.30
20672;DHT22;10495;50.922;4.760;2023-04-03T16:57:48;11.10;47.50
20672;DHT22;10495;50.922;4.760;2023-04-03T17:00:14;11.10;47.30
20672;DHT22;10495;50.922;4.760;2023-04-03T17:02:40;10.70;48.00
20672;DHT22;10495;50.922;4.760;2023-04-03T17:05:06;10.80;47.60